Route Details

Aircraft Information
Group: North America Fleet
Types: B738, B752, B762, B763
Route Data
Distance: 2071nm
Duration: 0h 00m
Origin METAR: KLAL 140050Z 00000KT 10SM SKC 21/06 A3018
Dest. METAR: KSMF 140053Z 11004KT 10SM BKN070 OVC085 09/07 A2998 RMK AO2 SLP151 P0001 T00940067
Freight Data
(for Apr 14, 2024)
Load Factor:
18%
Manifested Cargo: 10,738lbs
Financial History
Total Freight: 0lbs
Average Load: 0lbs/flt
Fuel Used: 0lbs
Avg. Fuel Used: 0lbs/flt
Fuel Expense: $0
Avg. Fuel Expense: $0
Avg. Fuel Cost: $0/lbs
Total Gross Income: $0
Pilot Pay: $0
Total Expenses: $0
Total Revenue: $0
Average Revenue: $0

Capitol Logistics 210




KLAL
Lakeland Linder Regional Airport
Lakeland, Florida
KSMF
Sacramento International Airport
Sacramento, California

Activity Log

Date Flight Route Aircraft Duration
No Flights Yet